sensor_id;sensor_type;location;lat;lon;timestamp;P1;durP1;ratioP1;P2;durP2;ratioP2
57241;SDS011;43095;53.302;5.786;2023-02-10T00:01:35;24.42;;;3.35;;
57241;SDS011;43095;53.302;5.786;2023-02-10T00:04:03;29.98;;;3.90;;
57241;SDS011;43095;53.302;5.786;2023-02-10T00:06:39;23.55;;;3.83;;
57241;SDS011;43095;53.302;5.786;2023-02-10T00:09:09;20.10;;;4.28;;
57241;SDS011;43095;53.302;5.786;2023-02-10T00:11:38;38.65;;;4.45;;
57241;SDS011;43095;53.302;5.786;2023-02-10T00:14:29;29.95;;;4.00;;
57241;SDS011;43095;53.302;5.786;2023-02-10T00:16:57;31.42;;;4.25;;
57241;SDS011;43095;53.302;5.786;2023-02-10T00:19:28;30.92;;;5.90;;
57241;SDS011;43095;53.302;5.786;2023-02-10T00:21:57;20.13;;;3.67;;
57241;SDS011;43095;53.302;5.786;2023-02-10T00:24:25;21.27;;;3.75;;
57241;SDS011;43095;53.302;5.786;2023-02-10T00:26:52;30.58;;;4.82;;
57241;SDS011;43095;53.302;5.786;2023-02-10T00:29:20;30.83;;;4.72;;
57241;SDS011;43095;53.302;5.786;2023-02-10T00:31:48;33.08;;;5.03;;
57241;SDS011;43095;53.302;5.786;2023-02-10T00:34:16;34.15;;;4.53;;
57241;SDS011;43095;53.302;5.786;2023-02-10T00:36:48;35.13;;;4.80;;
57241;SDS011;43095;53.302;5.786;2023-02-10T00:39:16;33.15;;;4.20;;
57241;SDS011;43095;53.302;5.786;2023-02-10T00:41:46;33.25;;;4.32;;
57241;SDS011;43095;53.302;5.786;2023-02-10T00:44:14;31.02;;;4.53;;
57241;SDS011;43095;53.302;5.786;2023-02-10T00:46:43;26.52;;;5.13;;
57241;SDS011;43095;53.302;5.786;2023-02-10T00:49:14;28.85;;;4.32;;
57241;SDS011;43095;53.302;5.786;2023-02-10T00:51:41;27.05;;;4.22;;
57241;SDS011;43095;53.302;5.786;2023-02-10T00:54:11;25.50;;;3.95;;
57241;SDS011;43095;53.302;5.786;2023-02-10T00:56:44;28.63;;;3.97;;
57241;SDS011;43095;53.302;5.786;2023-02-10T00:59:12;26.23;;;4.15;;
57241;SDS011;43095;53.302;5.786;2023-02-10T01:01:42;32.45;;;4.32;;
57241;SDS011;43095;53.302;5.786;2023-02-10T01:04:10;28.63;;;4.95;;
57241;SDS011;43095;53.302;5.786;2023-02-10T01:06:39;36.90;;;4.78;;
57241;SDS011;43095;53.302;5.786;2023-02-10T01:09:12;31.80;;;5.90;;
57241;SDS011;43095;53.302;5.786;2023-02-10T01:11:40;21.05;;;3.65;;
57241;SDS011;43095;53.302;5.786;2023-02-10T01:14:08;20.88;;;3.97;;
57241;SDS011;43095;53.302;5.786;2023-02-10T01:16:35;27.83;;;5.38;;
57241;SDS011;43095;53.302;5.786;2023-02-10T01:19:03;30.42;;;4.32;;
57241;SDS011;43095;53.302;5.786;2023-02-10T01:21:31;32.45;;;4.40;;
57241;SDS011;43095;53.302;5.786;2023-02-10T01:24:04;24.35;;;3.92;;
57241;SDS011;43095;53.302;5.786;2023-02-10T01:26:33;21.17;;;4.13;;
57241;SDS011;43095;53.302;5.786;2023-02-10T01:29:00;27.00;;;4.63;;
57241;SDS011;43095;53.302;5.786;2023-02-10T01:31:32;27.23;;;4.30;;
57241;SDS011;43095;53.302;5.786;2023-02-10T01:34:00;30.95;;;3.92;;
57241;SDS011;43095;53.302;5.786;2023-02-10T01:36:30;24.02;;;5.32;;
57241;SDS011;43095;53.302;5.786;2023-02-10T01:38:57;29.13;;;5.60;;
57241;SDS011;43095;53.302;5.786;2023-02-10T01:41:28;27.65;;;4.07;;
57241;SDS011;43095;53.302;5.786;2023-02-10T01:46:27;25.17;;;5.00;;
57241;SDS011;43095;53.302;5.786;2023-02-10T01:48:58;24.83;;;4.32;;
57241;SDS011;43095;53.302;5.786;2023-02-10T01:54:14;23.70;;;4.97;;
57241;SDS011;43095;53.302;5.786;2023-02-10T01:56:43;38.08;;;5.00;;
57241;SDS011;43095;53.302;5.786;2023-02-10T01:59:12;33.70;;;6.22;;
57241;SDS011;43095;53.302;5.786;2023-02-10T03:56:16;30.52;;;6.88;;
57241;SDS011;43095;53.302;5.786;2023-02-10T03:58:52;28.85;;;5.95;;
57241;SDS011;43095;53.302;5.786;2023-02-10T04:01:22;29.73;;;5.50;;
57241;SDS011;43095;53.302;5.786;2023-02-10T04:03:50;31.77;;;6.57;;
57241;SDS011;43095;53.302;5.786;2023-02-10T04:06:24;29.27;;;6.95;;
57241;SDS011;43095;53.302;5.786;2023-02-10T04:08:58;30.85;;;6.47;;
57241;SDS011;43095;53.302;5.786;2023-02-10T04:11:32;19.58;;;5.57;;
57241;SDS011;43095;53.302;5.786;2023-02-10T04:14:06;33.55;;;6.65;;
57241;SDS011;43095;53.302;5.786;2023-02-10T04:16:48;35.92;;;6.78;;
57241;SDS011;43095;53.302;5.786;2023-02-10T04:19:17;32.30;;;7.95;;
57241;SDS011;43095;53.302;5.786;2023-02-10T04:21:47;39.63;;;6.70;;
57241;SDS011;43095;53.302;5.786;2023-02-10T04:24:37;35.45;;;6.85;;
57241;SDS011;43095;53.302;5.786;2023-02-10T04:27:21;26.25;;;5.75;;
57241;SDS011;43095;53.302;5.786;2023-02-10T04:29:54;28.63;;;6.47;;
57241;SDS011;43095;53.302;5.786;2023-02-10T04:32:48;18.23;;;5.60;;
57241;SDS011;43095;53.302;5.786;2023-02-10T04:35:20;37.83;;;6.35;;
57241;SDS011;43095;53.302;5.786;2023-02-10T04:38:04;32.25;;;6.07;;
57241;SDS011;43095;53.302;5.786;2023-02-10T04:43:04;29.08;;;5.70;;
57241;SDS011;43095;53.302;5.786;2023-02-10T04:45:40;34.45;;;6.65;;
57241;SDS011;43095;53.302;5.786;2023-02-10T04:48:14;27.70;;;7.43;;
57241;SDS011;43095;53.302;5.786;2023-02-10T04:50:48;32.40;;;6.82;;
57241;SDS011;43095;53.302;5.786;2023-02-10T04:53:20;29.40;;;6.45;;
57241;SDS011;43095;53.302;5.786;2023-02-10T04:56:07;30.65;;;6.20;;
57241;SDS011;43095;53.302;5.786;2023-02-10T04:58:38;37.15;;;7.53;;
57241;SDS011;43095;53.302;5.786;2023-02-10T05:01:14;24.45;;;6.82;;
57241;SDS011;43095;53.302;5.786;2023-02-10T05:03:48;47.30;;;7.00;;
57241;SDS011;43095;53.302;5.786;2023-02-10T05:06:16;33.45;;;7.85;;
57241;SDS011;43095;53.302;5.786;2023-02-10T05:08:57;35.78;;;6.45;;
57241;SDS011;43095;53.302;5.786;2023-02-10T05:11:28;30.88;;;6.57;;
57241;SDS011;43095;53.302;5.786;2023-02-10T05:14:03;26.05;;;6.75;;
57241;SDS011;43095;53.302;5.786;2023-02-10T05:16:32;33.42;;;7.40;;
57241;SDS011;43095;53.302;5.786;2023-02-10T05:19:06;42.80;;;8.13;;
57241;SDS011;43095;53.302;5.786;2023-02-10T05:21:52;46.15;;;8.60;;
57241;SDS011;43095;53.302;5.786;2023-02-10T05:24:27;26.52;;;6.88;;
57241;SDS011;43095;53.302;5.786;2023-02-10T05:27:18;34.10;;;6.60;;
57241;SDS011;43095;53.302;5.786;2023-02-10T05:30:00;29.40;;;6.80;;
57241;SDS011;43095;53.302;5.786;2023-02-10T05:32:45;26.88;;;7.28;;
57241;SDS011;43095;53.302;5.786;2023-02-10T05:35:29;27.42;;;7.05;;
57241;SDS011;43095;53.302;5.786;2023-02-10T05:38:03;30.42;;;8.50;;
57241;SDS011;43095;53.302;5.786;2023-02-10T05:40:40;29.13;;;6.65;;
57241;SDS011;43095;53.302;5.786;2023-02-10T05:43:24;25.65;;;6.72;;
57241;SDS011;43095;53.302;5.786;2023-02-10T05:46:20;23.73;;;6.47;;
57241;SDS011;43095;53.302;5.786;2023-02-10T05:49:05;35.10;;;7.13;;
57241;SDS011;43095;53.302;5.786;2023-02-10T05:51:49;25.92;;;8.57;;
57241;SDS011;43095;53.302;5.786;2023-02-10T05:54:32;33.30;;;6.85;;
57241;SDS011;43095;53.302;5.786;2023-02-10T05:57:30;40.72;;;7.15;;
57241;SDS011;43095;53.302;5.786;2023-02-10T06:00:03;28.20;;;7.43;;
57241;SDS011;43095;53.302;5.786;2023-02-10T06:02:38;30.13;;;8.38;;
57241;SDS011;43095;53.302;5.786;2023-02-10T06:05:06;34.80;;;7.65;;
57241;SDS011;43095;53.302;5.786;2023-02-10T06:07:37;36.13;;;8.20;;
57241;SDS011;43095;53.302;5.786;2023-02-10T06:10:18;35.13;;;8.10;;
57241;SDS011;43095;53.302;5.786;2023-02-10T06:12:49;28.42;;;7.25;;
57241;SDS011;43095;53.302;5.786;2023-02-10T06:15:17;27.48;;;8.38;;
57241;SDS011;43095;53.302;5.786;2023-02-10T06:17:47;24.67;;;7.60;;
57241;SDS011;43095;53.302;5.786;2023-02-10T06:20:17;30.35;;;9.35;;
57241;SDS011;43095;53.302;5.786;2023-02-10T06:22:48;34.20;;;8.40;;
57241;SDS011;43095;53.302;5.786;2023-02-10T06:25:36;28.58;;;8.07;;
57241;SDS011;43095;53.302;5.786;2023-02-10T06:28:16;27.83;;;7.03;;
57241;SDS011;43095;53.302;5.786;2023-02-10T06:30:51;25.48;;;7.32;;
57241;SDS011;43095;53.302;5.786;2023-02-10T06:33:27;27.52;;;7.32;;
57241;SDS011;43095;53.302;5.786;2023-02-10T06:36:06;29.95;;;6.97;;
57241;SDS011;43095;53.302;5.786;2023-02-10T06:38:38;30.67;;;8.07;;
57241;SDS011;43095;53.302;5.786;2023-02-10T06:41:22;35.13;;;7.10;;
57241;SDS011;43095;53.302;5.786;2023-02-10T06:43:54;32.70;;;7.45;;
57241;SDS011;43095;53.302;5.786;2023-02-10T06:46:34;25.65;;;7.18;;
57241;SDS011;43095;53.302;5.786;2023-02-10T06:49:09;35.42;;;7.68;;
57241;SDS011;43095;53.302;5.786;2023-02-10T06:52:14;29.70;;;8.43;;
57241;SDS011;43095;53.302;5.786;2023-02-10T06:54:51;36.92;;;8.77;;
57241;SDS011;43095;53.302;5.786;2023-02-10T06:57:22;29.85;;;8.07;;
57241;SDS011;43095;53.302;5.786;2023-02-10T07:02:52;40.50;;;8.50;;
57241;SDS011;43095;53.302;5.786;2023-02-10T07:05:31;29.45;;;7.90;;
57241;SDS011;43095;53.302;5.786;2023-02-10T07:08:09;33.72;;;8.13;;
57241;SDS011;43095;53.302;5.786;2023-02-10T07:10:40;32.38;;;8.55;;
57241;SDS011;43095;53.302;5.786;2023-02-10T07:13:19;33.40;;;10.93;;
57241;SDS011;43095;53.302;5.786;2023-02-10T07:15:50;32.70;;;10.00;;
57241;SDS011;43095;53.302;5.786;2023-02-10T07:18:20;33.15;;;8.88;;
57241;SDS011;43095;53.302;5.786;2023-02-10T07:20:50;29.92;;;8.13;;
57241;SDS011;43095;53.302;5.786;2023-02-10T07:23:21;33.55;;;8.80;;
57241;SDS011;43095;53.302;5.786;2023-02-10T07:26:07;31.77;;;9.02;;
57241;SDS011;43095;53.302;5.786;2023-02-10T07:28:40;35.60;;;9.60;;
57241;SDS011;43095;53.302;5.786;2023-02-10T07:31:18;36.70;;;9.02;;
57241;SDS011;43095;53.302;5.786;2023-02-10T07:33:49;38.47;;;11.85;;
57241;SDS011;43095;53.302;5.786;2023-02-10T07:36:22;30.83;;;8.60;;
57241;SDS011;43095;53.302;5.786;2023-02-10T07:39:02;34.22;;;8.48;;
57241;SDS011;43095;53.302;5.786;2023-02-10T07:41:37;34.72;;;8.77;;
57241;SDS011;43095;53.302;5.786;2023-02-10T07:44:06;27.73;;;7.47;;
57241;SDS011;43095;53.302;5.786;2023-02-10T07:46:41;32.80;;;8.70;;
57241;SDS011;43095;53.302;5.786;2023-02-10T07:49:09;35.80;;;8.50;;
57241;SDS011;43095;53.302;5.786;2023-02-10T07:51:45;33.50;;;8.82;;
57241;SDS011;43095;53.302;5.786;2023-02-10T07:54:15;31.85;;;7.65;;
57241;SDS011;43095;53.302;5.786;2023-02-10T07:56:46;34.10;;;8.10;;
57241;SDS011;43095;53.302;5.786;2023-02-10T07:59:19;30.52;;;8.40;;
57241;SDS011;43095;53.302;5.786;2023-02-10T08:01:47;30.80;;;7.75;;
57241;SDS011;43095;53.302;5.786;2023-02-10T08:04:20;31.45;;;8.00;;
57241;SDS011;43095;53.302;5.786;2023-02-10T08:06:50;30.85;;;8.23;;
57241;SDS011;43095;53.302;5.786;2023-02-10T08:09:24;33.97;;;9.27;;
57241;SDS011;43095;53.302;5.786;2023-02-10T08:12:08;34.13;;;8.57;;
57241;SDS011;43095;53.302;5.786;2023-02-10T08:14:38;37.00;;;8.32;;
57241;SDS011;43095;53.302;5.786;2023-02-10T08:17:32;39.50;;;8.52;;
57241;SDS011;43095;53.302;5.786;2023-02-10T08:20:20;29.23;;;8.57;;
57241;SDS011;43095;53.302;5.786;2023-02-10T08:22:56;32.85;;;8.82;;
57241;SDS011;43095;53.302;5.786;2023-02-10T08:25:37;30.35;;;7.82;;
57241;SDS011;43095;53.302;5.786;2023-02-10T08:28:28;32.30;;;8.43;;
57241;SDS011;43095;53.302;5.786;2023-02-10T08:30:59;36.30;;;8.00;;
57241;SDS011;43095;53.302;5.786;2023-02-10T08:33:51;36.38;;;8.95;;
57241;SDS011;43095;53.302;5.786;2023-02-10T08:36:22;31.05;;;8.32;;
57241;SDS011;43095;53.302;5.786;2023-02-10T08:38:53;40.97;;;8.40;;
57241;SDS011;43095;53.302;5.786;2023-02-10T08:41:26;37.15;;;9.48;;
57241;SDS011;43095;53.302;5.786;2023-02-10T08:43:58;45.35;;;10.98;;
57241;SDS011;43095;53.302;5.786;2023-02-10T08:46:27;28.63;;;10.25;;
57241;SDS011;43095;53.302;5.786;2023-02-10T08:49:09;31.05;;;9.25;;
57241;SDS011;43095;53.302;5.786;2023-02-10T08:51:43;29.48;;;8.60;;
57241;SDS011;43095;53.302;5.786;2023-02-10T08:57:24;35.13;;;9.02;;
57241;SDS011;43095;53.302;5.786;2023-02-10T08:59:54;36.58;;;8.45;;
57241;SDS011;43095;53.302;5.786;2023-02-10T09:02:26;33.28;;;8.98;;
57241;SDS011;43095;53.302;5.786;2023-02-10T09:05:34;28.45;;;8.20;;
57241;SDS011;43095;53.302;5.786;2023-02-10T09:08:02;27.15;;;8.20;;
57241;SDS011;43095;53.302;5.786;2023-02-10T09:10:34;32.10;;;9.35;;
57241;SDS011;43095;53.302;5.786;2023-02-10T09:13:06;30.88;;;8.93;;
57241;SDS011;43095;53.302;5.786;2023-02-10T09:15:39;30.75;;;9.05;;
57241;SDS011;43095;53.302;5.786;2023-02-10T09:18:16;42.78;;;9.45;;
57241;SDS011;43095;53.302;5.786;2023-02-10T09:20:50;27.15;;;8.45;;
57241;SDS011;43095;53.302;5.786;2023-02-10T09:23:46;27.75;;;8.85;;
57241;SDS011;43095;53.302;5.786;2023-02-10T09:26:16;33.17;;;8.88;;
57241;SDS011;43095;53.302;5.786;2023-02-10T09:29:09;34.60;;;9.23;;
57241;SDS011;43095;53.302;5.786;2023-02-10T09:31:39;29.15;;;7.95;;
57241;SDS011;43095;53.302;5.786;2023-02-10T09:34:10;27.50;;;8.82;;
57241;SDS011;43095;53.302;5.786;2023-02-10T09:36:40;37.25;;;8.18;;
57241;SDS011;43095;53.302;5.786;2023-02-10T09:39:12;25.20;;;7.68;;
57241;SDS011;43095;53.302;5.786;2023-02-10T09:41:50;43.88;;;10.68;;
57241;SDS011;43095;53.302;5.786;2023-02-10T09:44:22;39.95;;;10.70;;
57241;SDS011;43095;53.302;5.786;2023-02-10T09:55:39;31.60;;;8.52;;
57241;SDS011;43095;53.302;5.786;2023-02-10T09:58:30;30.40;;;9.20;;
57241;SDS011;43095;53.302;5.786;2023-02-10T10:01:25;25.65;;;9.65;;
57241;SDS011;43095;53.302;5.786;2023-02-10T10:04:03;29.75;;;8.77;;
57241;SDS011;43095;53.302;5.786;2023-02-10T10:06:39;43.15;;;9.73;;
57241;SDS011;43095;53.302;5.786;2023-02-10T10:11:43;28.13;;;8.13;;
57241;SDS011;43095;53.302;5.786;2023-02-10T10:14:35;23.15;;;7.60;;
57241;SDS011;43095;53.302;5.786;2023-02-10T10:17:33;34.40;;;8.75;;
57241;SDS011;43095;53.302;5.786;2023-02-10T10:23:23;37.40;;;8.70;;
57241;SDS011;43095;53.302;5.786;2023-02-10T10:31:53;26.25;;;8.93;;
57241;SDS011;43095;53.302;5.786;2023-02-10T10:34:26;22.88;;;8.63;;
57241;SDS011;43095;53.302;5.786;2023-02-10T10:37:05;31.58;;;8.35;;
57241;SDS011;43095;53.302;5.786;2023-02-10T10:39:40;26.65;;;7.20;;
57241;SDS011;43095;53.302;5.786;2023-02-10T10:42:30;30.40;;;8.20;;
57241;SDS011;43095;53.302;5.786;2023-02-10T10:45:22;31.73;;;8.07;;
57241;SDS011;43095;53.302;5.786;2023-02-10T10:48:14;25.05;;;7.97;;
57241;SDS011;43095;53.302;5.786;2023-02-10T10:50:45;32.22;;;8.00;;
57241;SDS011;43095;53.302;5.786;2023-02-10T10:53:18;36.95;;;8.88;;
57241;SDS011;43095;53.302;5.786;2023-02-10T10:55:47;29.10;;;6.53;;
57241;SDS011;43095;53.302;5.786;2023-02-10T10:58:23;29.52;;;6.13;;
57241;SDS011;43095;53.302;5.786;2023-02-10T11:00:58;27.48;;;6.18;;
57241;SDS011;43095;53.302;5.786;2023-02-10T11:04:01;31.30;;;6.22;;
57241;SDS011;43095;53.302;5.786;2023-02-10T11:06:31;26.45;;;6.25;;
57241;SDS011;43095;53.302;5.786;2023-02-10T11:09:01;30.40;;;5.57;;
57241;SDS011;43095;53.302;5.786;2023-02-10T11:14:41;24.83;;;4.88;;
57241;SDS011;43095;53.302;5.786;2023-02-10T11:20:16;22.13;;;4.82;;
57241;SDS011;43095;53.302;5.786;2023-02-10T11:25:57;20.90;;;3.85;;
57241;SDS011;43095;53.302;5.786;2023-02-10T11:28:32;19.88;;;3.75;;
57241;SDS011;43095;53.302;5.786;2023-02-10T11:31:19;24.02;;;3.60;;
57241;SDS011;43095;53.302;5.786;2023-02-10T11:36:45;21.00;;;5.35;;
57241;SDS011;43095;53.302;5.786;2023-02-10T11:41:49;22.90;;;3.45;;
57241;SDS011;43095;53.302;5.786;2023-02-10T11:46:59;23.08;;;3.67;;
57241;SDS011;43095;53.302;5.786;2023-02-10T11:49:29;23.75;;;4.45;;
57241;SDS011;43095;53.302;5.786;2023-02-10T11:52:00;17.15;;;4.28;;
57241;SDS011;43095;53.302;5.786;2023-02-10T11:54:33;16.20;;;4.47;;
57241;SDS011;43095;53.302;5.786;2023-02-10T12:05:34;22.25;;;4.15;;
57241;SDS011;43095;53.302;5.786;2023-02-10T12:08:15;21.17;;;3.67;;
57241;SDS011;43095;53.302;5.786;2023-02-10T12:19:03;18.83;;;3.05;;
57241;SDS011;43095;53.302;5.786;2023-02-10T12:27:04;19.35;;;3.05;;
57241;SDS011;43095;53.302;5.786;2023-02-10T12:35:22;21.30;;;3.08;;
57241;SDS011;43095;53.302;5.786;2023-02-10T12:40:49;20.73;;;3.50;;
57241;SDS011;43095;53.302;5.786;2023-02-10T12:51:20;24.33;;;3.38;;
57241;SDS011;43095;53.302;5.786;2023-02-10T12:54:13;15.47;;;2.87;;
57241;SDS011;43095;53.302;5.786;2023-02-10T12:57:14;28.45;;;4.57;;
57241;SDS011;43095;53.302;5.786;2023-02-10T12:59:48;22.38;;;3.28;;
57241;SDS011;43095;53.302;5.786;2023-02-10T13:02:26;20.25;;;3.53;;
57241;SDS011;43095;53.302;5.786;2023-02-10T13:04:56;16.00;;;3.28;;
57241;SDS011;43095;53.302;5.786;2023-02-10T13:10:17;21.73;;;3.33;;
57241;SDS011;43095;53.302;5.786;2023-02-10T13:12:48;17.83;;;3.55;;
57241;SDS011;43095;53.302;5.786;2023-02-10T13:15:37;18.63;;;4.53;;
57241;SDS011;43095;53.302;5.786;2023-02-10T13:18:14;24.98;;;4.85;;
57241;SDS011;43095;53.302;5.786;2023-02-10T13:21:11;13.52;;;3.65;;
57241;SDS011;43095;53.302;5.786;2023-02-10T13:32:10;21.70;;;3.55;;
57241;SDS011;43095;53.302;5.786;2023-02-10T13:34:55;21.52;;;3.70;;
57241;SDS011;43095;53.302;5.786;2023-02-10T13:37:40;16.70;;;3.30;;
57241;SDS011;43095;53.302;5.786;2023-02-10T13:42:47;17.70;;;3.15;;
57241;SDS011;43095;53.302;5.786;2023-02-10T13:45:20;15.57;;;3.33;;
57241;SDS011;43095;53.302;5.786;2023-02-10T14:06:50;20.92;;;3.85;;
57241;SDS011;43095;53.302;5.786;2023-02-10T14:09:19;15.48;;;3.40;;
57241;SDS011;43095;53.302;5.786;2023-02-10T14:12:00;22.73;;;3.88;;
57241;SDS011;43095;53.302;5.786;2023-02-10T14:14:34;18.52;;;3.95;;
57241;SDS011;43095;53.302;5.786;2023-02-10T14:19:56;20.27;;;4.07;;
57241;SDS011;43095;53.302;5.786;2023-02-10T14:22:34;15.13;;;3.22;;
57241;SDS011;43095;53.302;5.786;2023-02-10T14:25:19;17.33;;;3.28;;
57241;SDS011;43095;53.302;5.786;2023-02-10T14:30:28;23.85;;;4.35;;
57241;SDS011;43095;53.302;5.786;2023-02-10T14:33:06;16.15;;;3.70;;
57241;SDS011;43095;53.302;5.786;2023-02-10T14:35:48;17.08;;;3.67;;
57241;SDS011;43095;53.302;5.786;2023-02-10T14:38:19;15.93;;;3.33;;
57241;SDS011;43095;53.302;5.786;2023-02-10T14:40:55;24.25;;;4.25;;
57241;SDS011;43095;53.302;5.786;2023-02-10T14:43:44;23.02;;;4.05;;
57241;SDS011;43095;53.302;5.786;2023-02-10T14:49:03;25.15;;;4.05;;
57241;SDS011;43095;53.302;5.786;2023-02-10T14:51:41;21.58;;;3.75;;
57241;SDS011;43095;53.302;5.786;2023-02-10T14:54:17;24.88;;;4.20;;
57241;SDS011;43095;53.302;5.786;2023-02-10T14:56:58;21.92;;;4.03;;
57241;SDS011;43095;53.302;5.786;2023-02-10T14:59:34;17.95;;;3.30;;
57241;SDS011;43095;53.302;5.786;2023-02-10T15:02:16;16.30;;;3.20;;
57241;SDS011;43095;53.302;5.786;2023-02-10T15:04:55;20.25;;;4.03;;
57241;SDS011;43095;53.302;5.786;2023-02-10T15:07:30;25.13;;;3.95;;
57241;SDS011;43095;53.302;5.786;2023-02-10T15:10:15;22.25;;;3.85;;
57241;SDS011;43095;53.302;5.786;2023-02-10T15:12:52;18.98;;;3.50;;
57241;SDS011;43095;53.302;5.786;2023-02-10T15:15:42;27.60;;;4.40;;
57241;SDS011;43095;53.302;5.786;2023-02-10T15:18:36;14.57;;;3.50;;
57241;SDS011;43095;53.302;5.786;2023-02-10T15:21:05;22.07;;;3.43;;
57241;SDS011;43095;53.302;5.786;2023-02-10T15:23:46;18.92;;;3.50;;
57241;SDS011;43095;53.302;5.786;2023-02-10T15:26:22;20.00;;;3.67;;
57241;SDS011;43095;53.302;5.786;2023-02-10T15:31:34;15.57;;;2.90;;
57241;SDS011;43095;53.302;5.786;2023-02-10T15:36:58;17.95;;;4.20;;
57241;SDS011;43095;53.302;5.786;2023-02-10T15:39:34;20.02;;;4.30;;
57241;SDS011;43095;53.302;5.786;2023-02-10T15:42:05;22.80;;;3.63;;
57241;SDS011;43095;53.302;5.786;2023-02-10T15:44:38;28.87;;;3.60;;
57241;SDS011;43095;53.302;5.786;2023-02-10T15:50:58;22.38;;;3.92;;
57241;SDS011;43095;53.302;5.786;2023-02-10T15:53:37;17.95;;;3.45;;
57241;SDS011;43095;53.302;5.786;2023-02-10T15:56:31;21.95;;;3.88;;
57241;SDS011;43095;53.302;5.786;2023-02-10T15:59:17;24.38;;;3.22;;
57241;SDS011;43095;53.302;5.786;2023-02-10T16:01:50;18.85;;;3.42;;
57241;SDS011;43095;53.302;5.786;2023-02-10T16:04:27;23.50;;;3.67;;
57241;SDS011;43095;53.302;5.786;2023-02-10T16:06:58;22.85;;;3.65;;
57241;SDS011;43095;53.302;5.786;2023-02-10T16:09:44;18.73;;;2.95;;
57241;SDS011;43095;53.302;5.786;2023-02-10T16:12:24;22.98;;;3.70;;
57241;SDS011;43095;53.302;5.786;2023-02-10T16:15:08;22.27;;;3.90;;
57241;SDS011;43095;53.302;5.786;2023-02-10T16:17:44;32.22;;;4.57;;
57241;SDS011;43095;53.302;5.786;2023-02-10T16:20:21;20.93;;;3.93;;
57241;SDS011;43095;53.302;5.786;2023-02-10T16:22:50;17.55;;;3.22;;
57241;SDS011;43095;53.302;5.786;2023-02-10T16:25:29;24.13;;;3.33;;
57241;SDS011;43095;53.302;5.786;2023-02-10T16:28:02;19.00;;;3.85;;
57241;SDS011;43095;53.302;5.786;2023-02-10T16:30:36;21.65;;;4.55;;
57241;SDS011;43095;53.302;5.786;2023-02-10T16:33:47;25.60;;;3.10;;
57241;SDS011;43095;53.302;5.786;2023-02-10T16:36:18;16.52;;;3.47;;
57241;SDS011;43095;53.302;5.786;2023-02-10T16:38:49;19.35;;;3.47;;
57241;SDS011;43095;53.302;5.786;2023-02-10T16:44:13;18.10;;;3.67;;
57241;SDS011;43095;53.302;5.786;2023-02-10T16:46:59;21.45;;;3.97;;
57241;SDS011;43095;53.302;5.786;2023-02-10T16:49:46;20.90;;;3.33;;
57241;SDS011;43095;53.302;5.786;2023-02-10T16:55:41;19.40;;;3.65;;
57241;SDS011;43095;53.302;5.786;2023-02-10T16:58:25;20.75;;;3.65;;
57241;SDS011;43095;53.302;5.786;2023-02-10T17:01:08;20.80;;;3.30;;
57241;SDS011;43095;53.302;5.786;2023-02-10T17:03:39;27.75;;;4.38;;
57241;SDS011;43095;53.302;5.786;2023-02-10T17:06:55;22.42;;;3.10;;
57241;SDS011;43095;53.302;5.786;2023-02-10T17:09:33;15.75;;;3.42;;
57241;SDS011;43095;53.302;5.786;2023-02-10T17:12:12;28.80;;;4.82;;
57241;SDS011;43095;53.302;5.786;2023-02-10T17:14:43;30.92;;;5.53;;
57241;SDS011;43095;53.302;5.786;2023-02-10T17:17:34;22.55;;;3.97;;
57241;SDS011;43095;53.302;5.786;2023-02-10T17:20:06;23.27;;;5.53;;
57241;SDS011;43095;53.302;5.786;2023-02-10T17:22:51;25.50;;;4.68;;
57241;SDS011;43095;53.302;5.786;2023-02-10T17:25:40;27.00;;;4.15;;
57241;SDS011;43095;53.302;5.786;2023-02-10T17:28:11;17.65;;;4.32;;
57241;SDS011;43095;53.302;5.786;2023-02-10T17:30:45;26.63;;;5.15;;
57241;SDS011;43095;53.302;5.786;2023-02-10T17:33:27;29.63;;;5.60;;
57241;SDS011;43095;53.302;5.786;2023-02-10T17:35:55;21.00;;;4.38;;
57241;SDS011;43095;53.302;5.786;2023-02-10T17:38:30;22.20;;;5.80;;
57241;SDS011;43095;53.302;5.786;2023-02-10T17:41:24;20.27;;;4.65;;
57241;SDS011;43095;53.302;5.786;2023-02-10T17:43:56;30.33;;;6.50;;
57241;SDS011;43095;53.302;5.786;2023-02-10T17:46:28;24.45;;;5.93;;
57241;SDS011;43095;53.302;5.786;2023-02-10T17:49:01;29.85;;;6.25;;
57241;SDS011;43095;53.302;5.786;2023-02-10T17:51:32;26.75;;;6.68;;
57241;SDS011;43095;53.302;5.786;2023-02-10T17:54:00;30.38;;;6.82;;
57241;SDS011;43095;53.302;5.786;2023-02-10T17:56:32;26.65;;;6.50;;
57241;SDS011;43095;53.302;5.786;2023-02-10T18:03:22;21.38;;;6.95;;
57241;SDS011;43095;53.302;5.786;2023-02-10T18:06:22;23.98;;;7.43;;
57241;SDS011;43095;53.302;5.786;2023-02-10T18:08:56;32.47;;;9.05;;
57241;SDS011;43095;53.302;5.786;2023-02-10T18:11:41;30.77;;;9.35;;
57241;SDS011;43095;53.302;5.786;2023-02-10T18:14:22;20.95;;;8.13;;
57241;SDS011;43095;53.302;5.786;2023-02-10T18:17:03;27.13;;;7.47;;
57241;SDS011;43095;53.302;5.786;2023-02-10T18:19:36;25.13;;;6.93;;
57241;SDS011;43095;53.302;5.786;2023-02-10T18:22:25;34.15;;;8.20;;
57241;SDS011;43095;53.302;5.786;2023-02-10T18:24:57;29.42;;;8.35;;
57241;SDS011;43095;53.302;5.786;2023-02-10T18:27:30;27.08;;;8.57;;
57241;SDS011;43095;53.302;5.786;2023-02-10T18:30:05;34.78;;;8.50;;
57241;SDS011;43095;53.302;5.786;2023-02-10T18:32:36;27.85;;;7.90;;
57241;SDS011;43095;53.302;5.786;2023-02-10T18:35:08;30.88;;;8.95;;
57241;SDS011;43095;53.302;5.786;2023-02-10T18:37:50;30.63;;;8.40;;
57241;SDS011;43095;53.302;5.786;2023-02-10T18:40:30;32.65;;;8.02;;
57241;SDS011;43095;53.302;5.786;2023-02-10T18:43:01;28.00;;;7.13;;
57241;SDS011;43095;53.302;5.786;2023-02-10T18:45:58;37.55;;;6.65;;
57241;SDS011;43095;53.302;5.786;2023-02-10T18:48:32;26.27;;;5.60;;
57241;SDS011;43095;53.302;5.786;2023-02-10T18:54:24;42.30;;;7.05;;
57241;SDS011;43095;53.302;5.786;2023-02-10T18:56:55;30.48;;;5.60;;
57241;SDS011;43095;53.302;5.786;2023-02-10T18:59:25;23.65;;;5.80;;
57241;SDS011;43095;53.302;5.786;2023-02-10T19:02:01;26.65;;;6.13;;
57241;SDS011;43095;53.302;5.786;2023-02-10T19:04:35;32.30;;;6.07;;
57241;SDS011;43095;53.302;5.786;2023-02-10T19:07:04;25.95;;;5.88;;
57241;SDS011;43095;53.302;5.786;2023-02-10T19:09:37;26.38;;;5.32;;
57241;SDS011;43095;53.302;5.786;2023-02-10T19:12:15;42.72;;;7.32;;
57241;SDS011;43095;53.302;5.786;2023-02-10T19:14:48;30.45;;;6.82;;
57241;SDS011;43095;53.302;5.786;2023-02-10T19:17:20;26.42;;;5.70;;
57241;SDS011;43095;53.302;5.786;2023-02-10T19:19:51;36.45;;;7.18;;
57241;SDS011;43095;53.302;5.786;2023-02-10T19:22:26;30.10;;;6.60;;
57241;SDS011;43095;53.302;5.786;2023-02-10T19:24:57;31.60;;;5.55;;
57241;SDS011;43095;53.302;5.786;2023-02-10T19:27:54;26.80;;;5.78;;
57241;SDS011;43095;53.302;5.786;2023-02-10T19:30:33;36.30;;;5.53;;
57241;SDS011;43095;53.302;5.786;2023-02-10T19:33:03;29.65;;;5.40;;
57241;SDS011;43095;53.302;5.786;2023-02-10T19:35:31;32.80;;;6.38;;
57241;SDS011;43095;53.302;5.786;2023-02-10T19:38:09;29.15;;;6.72;;
57241;SDS011;43095;53.302;5.786;2023-02-10T19:41:06;27.25;;;5.07;;
57241;SDS011;43095;53.302;5.786;2023-02-10T19:43:48;33.13;;;6.15;;
57241;SDS011;43095;53.302;5.786;2023-02-10T19:46:23;33.65;;;6.32;;
57241;SDS011;43095;53.302;5.786;2023-02-10T19:48:57;30.60;;;5.50;;
57241;SDS011;43095;53.302;5.786;2023-02-10T19:51:46;36.17;;;5.97;;
57241;SDS011;43095;53.302;5.786;2023-02-10T19:54:17;31.55;;;6.53;;
57241;SDS011;43095;53.302;5.786;2023-02-10T19:56:50;27.45;;;6.75;;